Time;durP1;ratioP1;P1;durP2;ratioP2;P2;SDS_P1;SDS_P2;PMS_P1;PMS_P2;Temp;Humidity;BMP_temperature;BMP_pressure;BME280_temperature;BME280_humidity;BME280_pressure;Samples;Min_cycle;Max_cycle;Signal;HPM_P1;HPM_P2
2022/08/15 00:00:13;;;;;;;5.20;2.58;;;19.20;1.40;;;20.66;100.00;94513.47;647837;216;42173;-70
2022/08/15 00:02:55;;;;;;;4.43;2.00;;;19.10;1.40;;;20.53;100.00;94519.63;645546;212;31601;-70
2022/08/15 00:05:36;;;;;;;2.70;2.50;;;18.90;1.40;;;20.61;100.00;94514.88;617233;226;42697;-70
2022/08/15 00:08:18;;;;;;;2.28;2.08;;;19.30;1.40;;;20.63;100.00;94515.20;648386;216;32099;-70
2022/08/15 00:11:07;;;;;;;2.42;2.20;;;19.40;1.40;;;20.68;100.00;94518.65;645062;212;42206;-70
2022/08/15 00:13:49;;;;;;;3.08;2.10;;;19.50;1.40;;;20.69;100.00;94517.53;647833;216;42194;-71
2022/08/15 00:16:33;;;;;;;3.20;2.33;;;19.50;1.40;;;20.62;100.00;94514.95;636776;216;31842;-71
2022/08/15 00:19:15;;;;;;;2.50;2.22;;;19.30;1.40;;;20.60;100.00;94510.80;648439;216;42150;-71
2022/08/15 00:21:55;;;;;;;2.95;2.47;;;19.20;1.40;;;20.52;100.00;94503.70;647198;212;31600;-71
2022/08/15 00:24:39;;;;;;;1.80;1.70;;;19.00;1.40;;;20.45;100.00;94505.56;650569;216;31710;-70
2022/08/15 00:27:24;;;;;;;2.70;2.30;;;18.90;1.40;;;20.29;100.00;94505.84;648603;216;42149;-71
2022/08/15 00:30:03;;;;;;;3.80;1.60;;;18.80;1.40;;;20.28;100.00;94504.32;648106;216;34465;-71
2022/08/15 00:32:46;;;;;;;4.80;2.00;;;18.80;1.40;;;20.32;100.00;94503.24;647980;216;42182;-70
2022/08/15 00:35:51;;;;;;;2.45;1.90;;;18.90;1.40;;;20.25;100.00;94504.03;648101;216;32280;-70
2022/08/15 00:38:33;;;;;;;2.30;2.10;;;19.10;1.40;;;20.31;100.00;94507.53;643458;216;32012;-70
2022/08/15 00:44:02;;;;;;;5.47;2.10;;;19.10;1.40;;;20.40;100.00;94501.75;644932;212;31557;-71
2022/08/15 00:46:46;;;;;;;2.50;1.90;;;19.10;1.40;;;20.35;100.00;94506.05;646023;216;42523;-70
2022/08/15 00:49:28;;;;;;;2.65;2.08;;;19.10;1.40;;;20.44;100.00;94511.16;647121;216;42745;-71
2022/08/15 00:52:11;;;;;;;2.30;2.08;;;19.10;1.40;;;20.47;100.00;94509.22;652477;216;42280;-70
2022/08/15 00:54:54;;;;;;;1.92;1.70;;;19.10;1.40;;;20.56;100.00;94503.32;649697;216;31698;-70
2022/08/15 00:57:36;;;;;;;2.28;2.08;;;19.20;1.40;;;20.59;100.00;94505.33;649128;216;31657;-71
2022/08/15 01:00:20;;;;;;;3.72;2.60;;;19.30;1.40;;;20.66;100.00;94505.20;652812;212;31654;-70
2022/08/15 01:03:02;;;;;;;2.70;1.90;;;19.40;1.40;;;20.66;100.00;94502.27;643987;216;42829;-72
2022/08/15 01:05:46;;;;;;;1.70;1.60;;;19.40;1.40;;;20.73;100.00;94498.92;649687;216;42227;-70
2022/08/15 01:08:27;;;;;;;2.33;2.12;;;19.40;1.40;;;20.78;100.00;94496.53;648329;212;33454;-70
2022/08/15 01:11:14;;;;;;;4.20;1.92;;;19.50;1.40;;;20.79;100.00;94494.69;647321;212;31542;-71
2022/08/15 01:13:56;;;;;;;2.90;1.60;;;19.50;1.40;;;20.92;100.00;94493.50;647931;216;31515;-71
2022/08/15 01:16:38;;;;;;;3.13;1.70;;;19.80;1.40;;;21.09;99.55;94497.25;639131;216;31751;-71
2022/08/15 01:19:23;;;;;;;1.80;1.65;;;20.00;1.40;;;21.27;98.26;94482.75;648913;216;42189;-70
2022/08/15 01:22:24;;;;;;;2.35;1.90;;;20.20;1.40;;;21.30;97.69;94484.03;646159;212;31534;-71
2022/08/15 01:25:16;;;;;;;2.30;2.00;;;20.20;1.40;;;21.30;97.63;94483.17;648380;216;31514;-70
2022/08/15 01:28:03;;;;;;;2.28;2.08;;;20.20;1.40;;;21.37;96.92;94485.41;648531;212;31790;-70
2022/08/15 01:30:48;;;;;;;2.80;2.00;;;20.30;1.40;;;21.29;97.34;94487.20;654811;216;31587;-70
2022/08/15 01:35:51;;;;;;;2.37;1.90;;;20.20;1.40;;;21.31;97.26;94491.78;649287;216;31585;-71
2022/08/15 01:38:33;;;;;;;2.50;1.90;;;20.20;1.40;;;21.29;97.33;94490.84;648307;216;31631;-70
2022/08/15 01:41:26;;;;;;;1.70;1.50;;;20.10;1.40;;;21.37;96.39;94495.80;647329;216;31744;-73
2022/08/15 01:44:30;;;;;;;2.22;1.70;;;20.10;1.40;;;21.31;96.83;94500.72;644397;216;42168;-71
2022/08/15 01:47:22;;;;;;;2.08;1.87;;;20.10;1.40;;;21.36;96.49;94496.81;652735;216;31595;-70
2022/08/15 01:50:07;;;;;;;1.90;1.70;;;20.10;1.40;;;21.30;96.85;94495.42;649229;212;42149;-70
2022/08/15 01:52:58;;;;;;;2.83;1.98;;;20.10;1.40;;;21.40;96.41;94492.38;646822;216;31555;-71
2022/08/15 01:55:44;;;;;;;5.55;2.10;;;20.10;1.40;;;21.40;95.75;94491.97;622703;222;31862;-70
2022/08/15 01:58:26;;;;;;;2.40;2.00;;;20.10;1.40;;;21.45;95.44;94488.00;646768;216;33271;-70
2022/08/15 02:01:08;;;;;;;1.77;1.55;;;20.20;1.40;;;21.43;95.53;94495.38;646095;216;31526;-70
2022/08/15 02:03:52;;;;;;;1.60;1.42;;;20.20;1.40;;;21.30;96.48;94505.67;626068;226;32154;-71
2022/08/15 02:06:34;;;;;;;2.20;2.00;;;20.10;1.40;;;21.28;96.93;94513.59;649504;216;31548;-70
2022/08/15 02:09:17;;;;;;;2.90;2.10;;;20.10;1.40;;;21.31;96.95;94513.85;652760;212;32129;-70
2022/08/15 02:12:00;;;;;;;1.98;1.67;;;20.10;1.40;;;21.22;97.91;94513.00;647226;216;32206;-71
2022/08/15 02:14:42;;;;;;;2.50;2.10;;;20.00;1.40;;;21.16;98.33;94520.23;644195;216;31535;-70
2022/08/15 02:19:58;;;;;;;2.50;1.90;;;20.10;1.40;;;21.22;98.15;94518.85;644336;212;42736;-70
2022/08/15 02:22:40;;;;;;;2.30;1.60;;;20.10;1.40;;;21.27;97.83;94517.50;650264;216;31763;-70
2022/08/15 02:25:24;;;;;;;2.80;1.60;;;20.20;1.40;;;21.23;98.12;94518.70;649435;212;32289;-70
2022/08/15 02:28:06;;;;;;;2.10;1.40;;;20.20;1.40;;;21.39;97.03;94515.86;649876;216;31617;-71
2022/08/15 02:30:48;;;;;;;2.25;1.75;;;20.30;1.40;;;21.34;97.12;94516.95;646492;216;31985;-70
2022/08/15 02:35:51;;;;;;;2.87;2.20;;;20.30;1.40;;;21.41;96.73;94519.16;649020;216;31712;-71
2022/08/15 02:38:34;;;;;;;2.00;1.73;;;20.30;1.40;;;21.37;97.00;94516.91;648222;216;32067;-70
2022/08/15 02:41:14;;;;;;;1.67;1.52;;;20.30;1.40;;;21.43;96.59;94523.38;646003;212;31560;-71
2022/08/15 02:43:56;;;;;;;1.60;1.50;;;20.40;1.40;;;21.45;96.65;94525.41;647238;216;31907;-70
2022/08/15 02:46:39;;;;;;;2.50;1.80;;;20.30;1.40;;;21.38;97.17;94528.83;645684;216;31507;-70
2022/08/15 02:49:19;;;;;;;1.67;1.20;;;20.20;1.40;;;21.51;95.96;94525.31;653149;216;31525;-71
2022/08/15 02:52:01;;;;;;;2.12;1.62;;;20.50;1.40;;;21.41;96.69;94524.78;649398;212;31632;-70
2022/08/15 02:54:43;;;;;;;1.90;1.60;;;20.40;1.40;;;21.44;96.57;94523.52;648874;216;31523;-70
2022/08/15 02:57:24;;;;;;;3.45;1.80;;;20.40;1.40;;;21.40;96.91;94525.33;653281;216;31877;-71
2022/08/15 03:00:08;;;;;;;2.47;1.80;;;20.30;1.40;;;21.35;97.32;94528.38;622634;222;32467;-71
2022/08/15 03:02:53;;;;;;;2.47;1.60;;;20.30;1.40;;;21.33;97.50;94531.08;651537;215;31571;-71
2022/08/15 03:05:34;;;;;;;2.00;1.67;;;20.30;1.40;;;21.26;98.15;94529.23;647627;216;31523;-72
2022/08/15 03:08:20;;;;;;;3.30;1.80;;;20.20;1.40;;;21.24;98.43;94532.73;643683;216;31541;-71
2022/08/15 03:11:00;;;;;;;2.37;1.73;;;20.20;1.40;;;21.26;98.55;94530.39;646546;216;31587;-71
2022/08/15 03:13:42;;;;;;;2.60;1.90;;;20.20;1.40;;;21.20;99.11;94536.47;654271;216;31783;-72
2022/08/15 03:16:25;;;;;;;2.90;1.73;;;20.10;1.40;;;21.17;99.63;94538.38;638989;216;31921;-71
2022/08/15 03:19:06;;;;;;;1.70;1.60;;;20.10;1.40;;;21.16;99.93;94545.80;622350;226;32058;-70
2022/08/15 03:21:48;;;;;;;1.50;1.35;;;20.10;1.40;;;21.15;100.00;94539.61;644125;216;31626;-70
2022/08/15 03:24:30;;;;;;;1.87;1.48;;;20.10;1.40;;;21.12;100.00;94542.04;649120;212;32257;-71
2022/08/15 03:27:10;;;;;;;2.85;1.50;;;20.10;1.40;;;21.04;100.00;94538.75;651461;216;31516;-71
2022/08/15 03:29:55;;;;;;;1.50;1.20;;;20.00;1.40;;;21.04;100.00;94543.22;629603;222;31768;-71
2022/08/15 03:32:46;;;;;;;3.55;1.90;;;19.90;1.40;;;20.96;100.00;94543.42;647757;215;31517;-70
2022/08/15 03:35:52;;;;;;;1.50;1.40;;;19.90;1.40;;;20.96;100.00;94538.72;651657;216;33088;-71
2022/08/15 03:38:36;;;;;;;1.70;1.40;;;19.90;1.40;;;20.95;100.00;94542.71;648226;212;42159;-73
2022/08/15 03:41:18;;;;;;;3.58;1.60;;;19.90;1.40;;;20.93;100.00;94553.25;645039;212;32079;-71
2022/08/15 03:44:00;;;;;;;1.30;1.20;;;19.90;1.40;;;20.85;100.00;94561.33;651214;216;31627;-70
2022/08/15 03:46:41;;;;;;;2.17;1.75;;;19.90;1.40;;;20.89;100.00;94557.73;645280;216;42185;-70
2022/08/15 03:49:23;;;;;;;4.43;1.65;;;19.90;1.40;;;20.77;100.00;94560.56;650183;216;42839;-70
2022/08/15 03:52:05;;;;;;;2.00;1.80;;;19.70;1.40;;;20.73;100.00;94561.48;646612;212;31528;-71
2022/08/15 03:54:47;;;;;;;1.70;1.50;;;19.70;1.40;;;20.72;100.00;94570.59;650715;216;31553;-70
2022/08/15 03:57:30;;;;;;;2.03;1.62;;;19.70;1.40;;;20.67;100.00;94567.23;649577;216;31634;-71
2022/08/15 04:00:14;;;;;;;1.45;1.25;;;19.60;1.40;;;20.70;100.00;94575.52;650093;216;31573;-70
2022/08/15 04:03:05;;;;;;;1.50;1.30;;;19.70;1.40;;;20.68;100.00;94577.00;648617;212;31568;-71
2022/08/15 04:05:49;;;;;;;1.62;1.17;;;19.70;1.40;;;20.68;100.00;94579.38;647338;212;31629;-71
2022/08/15 04:08:30;;;;;;;1.67;1.58;;;19.70;1.40;;;20.68;100.00;94579.61;623390;226;32361;-71
2022/08/15 04:11:10;;;;;;;2.40;1.58;;;19.70;1.40;;;20.60;100.00;94581.58;646078;216;31557;-70
2022/08/15 04:13:53;;;;;;;1.50;1.37;;;19.60;1.40;;;20.56;100.00;94579.88;643537;216;31524;-70
2022/08/15 04:16:34;;;;;;;1.80;1.70;;;19.60;1.40;;;20.56;100.00;94589.13;615644;226;42800;-70
2022/08/15 04:19:16;;;;;;;2.30;1.50;;;19.60;1.40;;;20.56;100.00;94586.91;649934;212;31514;-70
2022/08/15 04:22:06;;;;;;;1.05;0.95;;;19.50;1.40;;;20.54;100.00;94596.31;648627;216;31527;-70
2022/08/15 04:24:47;;;;;;;2.15;1.40;;;19.60;1.40;;;20.58;100.00;94598.41;648127;212;31846;-70
2022/08/15 04:27:29;;;;;;;2.42;1.58;;;19.60;1.40;;;20.56;100.00;94598.25;644561;212;42160;-70
2022/08/15 04:30:11;;;;;;;1.60;1.00;;;19.60;1.40;;;20.56;100.00;94593.62;646107;216;42729;-71
2022/08/15 04:32:53;;;;;;;1.30;1.20;;;19.60;1.40;;;20.50;100.00;94597.45;643288;216;31412;-73
2022/08/15 04:35:52;;;;;;;1.25;1.00;;;19.50;1.40;;;20.27;100.00;94597.94;646840;216;31744;-71
2022/08/15 04:38:34;;;;;;;3.50;1.30;;;19.30;1.40;;;20.09;100.00;94606.88;652330;216;31526;-70
2022/08/15 04:41:15;;;;;;;2.50;1.30;;;19.20;1.40;;;19.99;100.00;94604.89;651060;212;31532;-71
2022/08/15 04:43:57;;;;;;;1.60;1.30;;;19.10;1.40;;;19.79;100.00;94605.41;645831;212;31704;-70
2022/08/15 04:46:39;;;;;;;1.70;1.00;;;18.90;1.40;;;19.73;100.00;94595.38;647149;216;31604;-70
2022/08/15 04:49:21;;;;;;;1.77;1.08;;;18.90;1.40;;;19.77;100.00;94600.62;649777;216;31564;-70
2022/08/15 04:52:16;;;;;;;1.37;1.27;;;18.90;1.40;;;19.68;100.00;94600.69;647223;216;31843;-70
2022/08/15 04:54:58;;;;;;;3.43;1.20;;;18.80;1.40;;;19.42;100.00;94598.34;649948;216;42228;-71
2022/08/15 04:57:40;;;;;;;0.90;0.70;;;18.60;1.40;;;19.39;100.00;94597.89;645251;212;31631;-71
2022/08/15 05:00:21;;;;;;;2.20;1.60;;;18.60;1.40;;;19.23;100.00;94602.12;644319;216;31570;-71
2022/08/15 05:03:08;;;;;;;1.87;1.30;;;18.40;1.40;;;18.97;100.00;94595.47;649126;216;31501;-70
2022/08/15 05:05:49;;;;;;;1.30;1.10;;;18.20;1.40;;;18.75;100.00;94596.30;644648;212;31827;-70
2022/08/15 05:08:31;;;;;;;0.82;0.70;;;18.00;1.40;;;18.66;100.00;94598.97;649544;216;31523;-70
2022/08/15 05:11:14;;;;;;;1.70;1.12;;;17.90;1.40;;;18.40;100.00;94602.92;649664;216;31534;-70
2022/08/15 05:13:56;;;;;;;1.70;0.82;;;17.70;1.40;;;18.31;100.00;94604.75;644122;212;32042;-71
2022/08/15 05:16:37;;;;;;;1.50;1.05;;;17.60;1.40;;;18.13;100.00;94604.48;615428;226;32157;-70
2022/08/15 05:21:53;;;;;;;1.90;1.27;;;17.30;1.40;;;17.78;100.00;94606.81;648293;212;31510;-70
2022/08/15 05:24:35;;;;;;;1.00;0.90;;;17.00;1.40;;;17.62;100.00;94607.23;646362;212;31606;-70
2022/08/15 05:27:20;;;;;;;2.00;0.90;;;16.70;1.40;;;17.55;100.00;94611.41;645434;216;31509;-71
2022/08/15 05:30:02;;;;;;;1.23;1.12;;;16.60;1.40;;;17.48;100.00;94611.59;645985;216;31602;-71
2022/08/15 05:32:47;;;;;;;1.33;1.23;;;16.50;1.40;;;17.47;100.00;94612.72;648581;216;31504;-70
2022/08/15 05:35:53;;;;;;;1.30;0.88;;;16.60;1.40;;;17.50;100.00;94611.91;644996;216;32011;-70
2022/08/15 05:38:37;;;;;;;0.90;0.60;;;16.60;1.40;;;17.62;100.00;94608.84;652291;216;31496;-71
2022/08/15 05:41:41;;;;;;;1.40;0.70;;;17.00;1.40;;;17.69;100.00;94612.29;634940;222;31668;-69
2022/08/15 05:44:35;;;;;;;1.55;1.45;;;17.20;1.40;;;17.79;100.00;94613.97;649133;216;31496;-70
2022/08/15 05:47:22;;;;;;;1.00;0.90;;;17.20;1.40;;;17.83;100.00;94614.58;646320;212;31500;-70
2022/08/15 05:50:14;;;;;;;0.90;0.50;;;17.30;1.40;;;17.83;100.00;94612.39;648394;212;42101;-70
2022/08/15 05:53:02;;;;;;;0.70;0.55;;;17.30;1.40;;;17.93;100.00;94609.45;645465;216;31704;-70
2022/08/15 05:55:46;;;;;;;1.40;0.95;;;17.40;1.40;;;18.04;100.00;94612.98;647880;212;31475;-70
2022/08/15 05:58:52;;;;;;;0.80;0.77;;;17.50;1.40;;;18.13;100.00;94614.08;648132;216;31498;-70
2022/08/15 06:01:39;;;;;;;0.90;0.75;;;17.60;1.40;;;18.28;100.00;94611.50;647437;216;31630;-70
2022/08/15 06:04:22;;;;;;;1.70;1.10;;;17.80;1.40;;;18.48;100.00;94607.13;646848;212;31468;-69
2022/08/15 06:07:03;;;;;;;0.90;0.90;;;17.90;1.40;;;18.64;100.00;94603.81;651251;216;32980;-69
2022/08/15 06:10:01;;;;;;;2.17;1.60;;;18.00;1.40;;;18.81;100.00;94602.91;647252;212;31522;-69
2022/08/15 06:12:43;;;;;;;1.70;1.05;;;18.00;1.40;;;18.93;100.00;94608.69;648548;216;32131;-69
2022/08/15 06:15:28;;;;;;;1.23;0.83;;;18.00;1.40;;;19.03;100.00;94610.00;642073;216;31785;-69
2022/08/15 06:18:10;;;;;;;2.25;0.80;;;18.10;1.40;;;19.15;100.00;94610.66;647149;216;31869;-69
2022/08/15 06:20:57;;;;;;;1.50;0.80;;;18.10;1.40;;;19.18;100.00;94614.30;646790;216;31517;-69
2022/08/15 06:29:34;;;;;;;1.10;0.90;;;18.40;1.40;;;19.38;100.00;94619.52;648994;212;32163;-69
2022/08/15 06:32:23;;;;;;;2.73;1.00;;;18.40;1.40;;;19.33;100.00;94624.59;648876;212;31647;-70
2022/08/15 06:36:00;;;;;;;0.90;0.70;;;18.40;1.40;;;19.35;100.00;94626.70;647481;216;31523;-69
2022/08/15 06:38:55;;;;;;;0.90;0.52;;;18.40;1.40;;;19.47;100.00;94628.28;646274;216;31468;-69
2022/08/15 06:41:44;;;;;;;1.17;0.70;;;18.50;1.40;;;19.54;100.00;94627.10;649746;216;31499;-69
2022/08/15 06:44:26;;;;;;;0.60;0.40;;;18.60;1.40;;;19.73;100.00;94630.17;646681;212;31510;-69
2022/08/15 06:47:11;;;;;;;0.62;0.50;;;18.70;1.40;;;19.73;100.00;94633.38;648586;216;31575;-69
2022/08/15 06:49:52;;;;;;;1.40;0.80;;;18.80;1.40;;;19.81;100.00;94640.13;618031;225;31851;-70
2022/08/15 06:52:34;;;;;;;1.00;0.70;;;18.80;1.40;;;19.95;100.00;94634.89;646340;216;31477;-69
2022/08/15 06:55:16;;;;;;;0.88;0.62;;;19.00;1.40;;;20.08;100.00;94632.56;644994;216;31774;-70
2022/08/15 06:57:58;;;;;;;0.90;0.80;;;19.10;1.40;;;20.16;100.00;94634.16;619484;223;31820;-69
2022/08/15 07:00:46;;;;;;;0.80;0.77;;;19.10;1.40;;;20.18;100.00;94630.95;647428;216;31618;-70
2022/08/15 07:03:34;;;;;;;2.28;0.62;;;19.10;1.40;;;20.22;100.00;94635.90;648844;212;42374;-69
2022/08/15 07:06:16;;;;;;;1.42;0.95;;;19.20;1.40;;;20.31;100.00;94634.39;648841;216;31843;-69
2022/08/15 07:11:27;;;;;;;0.70;0.70;;;19.40;1.40;;;20.54;100.00;94629.95;645982;216;31474;-69
2022/08/15 07:14:19;;;;;;;0.98;0.80;;;19.50;1.40;;;20.58;100.00;94630.57;647261;212;42120;-69
2022/08/15 07:17:18;;;;;;;1.00;0.60;;;19.50;1.40;;;20.55;100.00;94633.31;645916;216;31569;-69
2022/08/15 07:19:59;;;;;;;1.20;0.98;;;19.70;1.40;;;20.90;100.00;94633.34;646015;216;34602;-69
2022/08/15 07:25:15;;;;;;;1.10;1.00;;;20.20;1.40;;;21.30;100.00;94628.37;646453;212;31637;-70
2022/08/15 07:27:58;;;;;;;1.10;0.80;;;20.40;1.40;;;21.56;100.00;94626.75;645591;216;31536;-70
2022/08/15 07:36:14;;;;;;;1.13;0.93;;;21.10;1.40;;;22.26;100.00;94624.20;644920;216;42181;-72
2022/08/15 07:38:55;;;;;;;0.80;0.77;;;21.40;1.40;;;22.26;100.00;94626.86;649227;216;31502;-69
2022/08/15 07:41:40;;;;;;;1.12;0.90;;;21.10;1.40;;;22.01;100.00;94628.94;649025;212;32202;-70
2022/08/15 07:44:27;;;;;;;1.00;0.73;;;21.00;1.40;;;22.21;100.00;94623.12;646642;216;42754;-69
2022/08/15 07:47:11;;;;;;;1.30;1.00;;;21.40;1.40;;;22.47;100.00;94632.07;646890;216;31586;-70
2022/08/15 07:50:14;;;;;;;3.20;1.10;;;21.20;1.40;;;22.73;100.00;94629.85;646153;216;31492;-69
2022/08/15 07:52:57;;;;;;;1.02;0.70;;;21.80;1.40;;;22.70;100.00;94633.79;651555;216;31660;-69
2022/08/15 07:55:41;;;;;;;1.08;0.90;;;21.60;1.40;;;22.39;100.00;94637.00;650114;216;31598;-69
2022/08/15 07:58:24;;;;;;;1.55;0.90;;;21.30;1.40;;;22.47;100.00;94625.67;646176;216;31532;-69
2022/08/15 08:01:15;;;;;;;1.70;1.20;;;21.40;1.40;;;22.65;100.00;94629.17;650433;212;31516;-70
2022/08/15 08:04:09;;;;;;;1.12;0.80;;;21.40;1.40;;;22.30;100.00;94631.25;648707;212;31684;-69
2022/08/15 08:07:04;;;;;;;0.80;0.80;;;21.20;1.40;;;22.21;100.00;94629.42;649802;216;32427;-71
2022/08/15 08:09:45;;;;;;;1.20;0.90;;;21.10;1.40;;;22.64;100.00;94630.82;647563;212;31623;-70
2022/08/15 08:12:39;;;;;;;1.30;1.10;;;21.40;1.40;;;22.56;100.00;94622.63;646992;216;35244;-70
2022/08/15 08:15:28;;;;;;;1.20;1.10;;;21.50;1.40;;;22.66;100.00;94629.90;618797;226;31913;-69
2022/08/15 08:18:17;;;;;;;2.00;1.20;;;21.40;1.40;;;22.46;100.00;94634.09;646139;216;31614;-69
2022/08/15 08:21:04;;;;;;;1.23;1.00;;;21.30;1.40;;;22.27;100.00;94637.50;650330;216;31516;-69
2022/08/15 08:23:47;;;;;;;1.40;1.30;;;21.10;1.40;;;21.95;100.00;94634.72;647287;216;31509;-69
2022/08/15 08:26:30;;;;;;;1.23;1.12;;;20.80;1.40;;;21.76;100.00;94633.43;646428;216;31595;-69
2022/08/15 08:29:29;;;;;;;2.28;1.15;;;20.80;1.40;;;21.80;100.00;94627.59;647406;212;31543;-70
2022/08/15 08:32:17;;;;;;;1.27;1.08;;;20.70;1.40;;;21.72;100.00;94632.51;646020;216;32138;-69
2022/08/15 08:35:53;;;;;;;2.50;1.30;;;20.70;1.40;;;21.71;100.00;94632.13;647689;216;31752;-69
2022/08/15 08:38:47;;;;;;;1.30;1.10;;;20.70;1.40;;;22.00;100.00;94636.67;647909;212;32143;-70
2022/08/15 08:41:39;;;;;;;1.77;1.00;;;21.00;1.40;;;22.04;100.00;94638.56;650165;216;31547;-69
2022/08/15 08:44:27;;;;;;;1.20;1.05;;;20.90;1.40;;;22.04;100.00;94632.63;647018;216;31691;-69
2022/08/15 08:47:18;;;;;;;1.20;1.10;;;20.90;1.40;;;22.43;100.00;94640.73;650483;216;31491;-69
2022/08/15 08:50:22;;;;;;;1.10;0.90;;;21.20;1.40;;;22.74;100.00;94633.51;649739;216;32070;-70
2022/08/15 08:53:13;;;;;;;1.00;0.82;;;21.40;1.40;;;22.88;100.00;94630.89;648481;212;31683;-70
2022/08/15 08:55:59;;;;;;;4.10;1.27;;;21.50;1.40;;;23.17;100.00;94632.83;644952;216;32205;-69
2022/08/15 08:58:45;;;;;;;0.70;0.60;;;21.70;1.40;;;23.20;100.00;94635.23;648616;216;32269;-70
2022/08/15 09:01:27;;;;;;;1.23;1.12;;;21.70;1.40;;;23.04;100.00;94636.19;647824;212;31511;-69
2022/08/15 09:04:12;;;;;;;1.10;1.00;;;21.50;1.40;;;23.25;100.00;94636.20;647063;216;31488;-69
2022/08/15 09:06:55;;;;;;;0.70;0.60;;;21.90;1.40;;;23.17;100.00;94636.55;647856;212;31499;-69
2022/08/15 09:09:36;;;;;;;1.73;1.15;;;21.80;1.40;;;23.70;100.00;94630.22;648495;216;32099;-69
2022/08/15 09:15:06;;;;;;;1.40;1.10;;;22.00;1.40;;;23.57;100.00;94632.24;641782;216;32593;-69
2022/08/15 09:17:52;;;;;;;1.70;1.20;;;22.10;1.40;;;23.71;100.00;94627.33;644818;216;31587;-69
2022/08/15 09:20:33;;;;;;;2.97;1.00;;;22.10;1.40;;;23.47;100.00;94630.84;649079;216;42587;-69
2022/08/15 09:23:20;;;;;;;1.73;1.40;;;21.90;1.40;;;23.52;100.00;94632.58;648190;216;42198;-69
2022/08/15 09:26:13;;;;;;;1.25;1.15;;;21.90;1.40;;;23.30;100.00;94634.48;646374;216;32339;-70
2022/08/15 09:29:04;;;;;;;1.12;1.02;;;21.80;1.40;;;23.66;98.42;94629.32;619844;225;31819;-69
2022/08/15 09:31:52;;;;;;;1.10;1.00;;;22.10;1.40;;;23.99;98.37;94629.96;646300;216;42118;-69
2022/08/15 09:41:09;;;;;;;2.00;1.50;;;22.10;1.40;;;23.70;96.44;94637.20;644034;212;31740;-70
2022/08/15 09:44:20;;;;;;;1.40;1.30;;;22.20;1.40;;;23.53;97.70;94637.49;646188;216;31793;-69
2022/08/15 09:47:08;;;;;;;1.00;0.80;;;22.10;1.40;;;24.11;95.87;94634.84;645070;216;31527;-69
2022/08/15 09:50:20;;;;;;;1.60;1.20;;;22.70;1.40;;;23.92;94.97;94632.27;654375;216;31640;-69
2022/08/15 09:53:21;;;;;;;1.10;1.00;;;22.40;1.40;;;24.51;93.54;94629.45;650330;216;31481;-69
2022/08/15 09:56:03;;;;;;;1.45;1.10;;;23.10;1.40;;;24.73;91.28;94627.94;647096;216;31493;-70
2022/08/15 09:58:53;;;;;;;1.40;1.12;;;22.90;1.40;;;24.05;91.92;94627.59;654264;216;31989;-71
2022/08/15 10:01:49;;;;;;;1.20;0.93;;;22.20;1.40;;;23.89;93.70;94628.71;652340;216;31492;-69
2022/08/15 10:04:56;;;;;;;1.20;1.10;;;22.20;1.40;;;23.76;94.79;94631.88;646852;216;31519;-69
2022/08/15 10:08:01;;;;;;;1.52;1.10;;;22.20;1.40;;;23.84;94.79;94624.03;619925;222;32399;-69
2022/08/15 10:10:48;;;;;;;1.37;1.10;;;22.40;1.40;;;24.30;93.10;94627.58;648470;216;31625;-69
2022/08/15 10:13:47;;;;;;;1.30;1.20;;;22.60;1.40;;;24.30;91.56;94628.30;646677;215;31496;-69
2022/08/15 10:19:04;;;;;;;1.00;0.90;;;22.70;1.40;;;24.38;90.81;94623.30;646390;216;31492;-69
2022/08/15 10:21:46;;;;;;;1.10;1.00;;;22.60;1.40;;;23.91;92.58;94627.08;648411;216;31485;-70
2022/08/15 10:24:34;;;;;;;1.08;1.00;;;22.30;1.40;;;23.99;93.23;94629.20;645076;216;31678;-69
2022/08/15 10:27:20;;;;;;;1.60;1.50;;;22.40;1.40;;;24.12;92.54;94624.89;645382;216;31509;-69
2022/08/15 10:29:59;;;;;;;2.60;1.08;;;22.70;1.40;;;24.45;90.69;94623.08;621199;225;31849;-69
2022/08/15 10:32:41;;;;;;;1.60;1.23;;;22.90;1.40;;;24.50;90.33;94624.62;649660;212;31520;-69
2022/08/15 10:35:53;;;;;;;1.20;1.10;;;23.00;1.40;;;24.56;89.10;94621.88;649069;212;31658;-69
2022/08/15 10:38:36;;;;;;;1.40;1.00;;;23.30;1.40;;;24.90;89.01;94626.80;651986;212;31540;-69
2022/08/15 10:41:32;;;;;;;1.20;1.05;;;23.50;1.40;;;25.04;87.69;94626.52;650224;216;31662;-69
2022/08/15 10:44:52;;;;;;;1.30;1.05;;;23.40;1.40;;;24.91;87.16;94619.27;631563;222;31705;-70
2022/08/15 10:47:37;;;;;;;2.35;1.20;;;23.40;1.40;;;24.83;86.91;94624.06;646069;216;31494;-69
2022/08/15 10:55:48;;;;;;;1.40;1.00;;;24.00;1.40;;;25.76;83.09;94608.06;645596;216;31626;-69
2022/08/15 10:58:32;;;;;;;1.37;1.20;;;23.90;1.40;;;26.11;82.13;94604.13;649786;216;31679;-70
2022/08/15 11:01:20;;;;;;;1.60;1.02;;;24.60;1.40;;;25.97;80.50;94600.89;645261;216;31609;-69
2022/08/15 11:04:05;;;;;;;0.80;0.80;;;24.30;1.40;;;26.33;79.07;94606.94;648870;216;31691;-70
2022/08/15 11:06:46;;;;;;;1.42;1.00;;;24.70;1.40;;;26.19;77.14;94605.72;649618;216;32219;-69
2022/08/15 11:09:28;;;;;;;1.40;1.30;;;24.40;1.40;;;25.95;77.04;94604.92;646479;216;31706;-69
2022/08/15 11:12:12;;;;;;;1.40;1.30;;;24.20;1.40;;;25.74;76.78;94602.50;652189;212;31764;-70
2022/08/15 11:14:54;;;;;;;1.60;1.02;;;23.90;1.40;;;25.54;76.77;94601.70;642779;216;33622;-70
2022/08/15 11:17:38;;;;;;;1.08;1.00;;;23.80;1.40;;;25.33;77.78;94606.69;651006;216;31479;-69
2022/08/15 11:20:21;;;;;;;1.23;0.90;;;23.70;1.40;;;25.54;77.46;94604.00;647145;212;31460;-69
2022/08/15 11:23:04;;;;;;;1.00;0.90;;;23.80;1.40;;;25.60;77.16;94601.89;649227;212;31677;-70
2022/08/15 11:25:48;;;;;;;1.20;1.10;;;23.90;1.40;;;25.66;74.82;94604.17;621748;226;31980;-70
2022/08/15 11:28:32;;;;;;;1.55;0.85;;;24.10;1.40;;;26.00;75.90;94600.94;646708;216;31774;-70
2022/08/15 11:31:13;;;;;;;1.40;0.85;;;24.40;1.40;;;25.62;75.79;94607.31;622826;222;32248;-69
2022/08/15 11:35:50;;;;;;;1.30;1.00;;;23.70;1.40;;;25.59;75.84;94603.07;647347;216;31544;-70
2022/08/15 11:38:32;;;;;;;1.08;0.90;;;23.80;1.40;;;25.79;75.86;94601.93;645704;216;31794;-70
2022/08/15 11:41:20;;;;;;;1.00;0.90;;;24.20;1.40;;;25.54;75.75;94598.34;647933;216;33432;-69
2022/08/15 11:44:03;;;;;;;1.20;1.10;;;23.70;1.40;;;25.61;76.53;94596.42;650396;216;31657;-70
2022/08/15 11:46:46;;;;;;;1.10;0.90;;;23.90;1.40;;;25.34;77.92;94598.48;647542;213;32251;-69
2022/08/15 11:52:10;;;;;;;1.52;1.00;;;23.50;1.40;;;25.17;79.26;94594.17;646518;216;31628;-69
2022/08/15 11:55:09;;;;;;;0.80;0.77;;;23.50;1.40;;;24.76;79.75;94596.47;647721;216;31521;-69
2022/08/15 11:57:53;;;;;;;1.60;1.00;;;23.20;1.40;;;24.97;79.89;94590.57;648852;216;31504;-69
2022/08/15 12:00:43;;;;;;;1.10;1.00;;;23.40;1.40;;;24.88;81.11;94587.13;646787;216;31613;-70
2022/08/15 12:03:31;;;;;;;1.90;1.10;;;22.40;1.40;;;24.69;86.36;94588.69;646954;216;31574;-69
2022/08/15 12:06:27;;;;;;;1.48;1.10;;;22.70;1.40;;;24.57;93.78;94591.80;644600;216;31583;-69
2022/08/15 12:09:20;;;;;;;1.42;1.33;;;22.80;1.40;;;24.52;95.25;94586.86;647082;216;31551;-69
2022/08/15 12:12:02;;;;;;;1.40;1.05;;;23.20;1.40;;;25.12;90.77;94580.95;646654;216;31959;-69
2022/08/15 12:14:45;;;;;;;2.80;1.20;;;23.20;1.40;;;25.19;89.17;94583.44;617541;222;31995;-69
2022/08/15 12:17:28;;;;;;;1.20;0.70;;;23.20;1.40;;;26.23;88.29;94573.38;645061;216;31676;-70
2022/08/15 12:20:08;;;;;;;2.12;0.98;;;24.40;1.40;;;27.65;78.81;94575.18;646343;216;42146;-69
2022/08/15 12:22:50;;;;;;;2.00;1.05;;;25.60;1.40;;;29.63;71.22;94570.77;619047;226;32142;-70
2022/08/15 12:25:32;;;;;;;1.20;0.80;;;27.70;1.40;;;30.51;62.47;94562.02;646548;216;32192;-70
2022/08/15 12:28:13;;;;;;;1.50;1.00;;;27.70;1.40;;;31.53;60.82;94555.88;646618;216;31569;-70
2022/08/15 12:30:56;;;;;;;1.77;1.02;;;28.90;1.40;;;32.88;55.34;94546.36;647174;216;31485;-70
2022/08/15 12:35:51;;;;;;;1.40;1.20;;;31.00;1.40;;;33.10;53.29;94538.92;646263;216;31696;-70